createdAt,value
2023-04-30T00:02:42.968Z,2.92
2023-04-30T00:07:45.601Z,2.90
2023-04-30T00:12:49.394Z,2.70
2023-04-30T00:17:53.169Z,2.58
2023-04-30T00:22:55.862Z,2.60
2023-04-30T00:27:59.648Z,2.47
2023-04-30T00:33:02.272Z,2.60
2023-04-30T00:38:04.896Z,2.65
2023-04-30T00:43:08.824Z,2.67
2023-04-30T00:48:11.646Z,2.53
2023-04-30T00:53:14.501Z,2.55
2023-04-30T00:58:18.444Z,2.65
2023-04-30T01:03:22.855Z,2.60
2023-04-30T01:08:26.275Z,2.58
2023-04-30T01:13:35.758Z,2.55
2023-04-30T01:18:45.041Z,2.90
2023-04-30T01:24:16.295Z,2.58
2023-04-30T01:29:21.227Z,2.83
2023-04-30T01:34:23.705Z,2.70
2023-04-30T01:39:39.226Z,2.90
2023-04-30T01:44:56.078Z,2.30
2023-04-30T01:50:11.121Z,2.25
2023-04-30T01:55:16.033Z,2.87
2023-04-30T02:00:20.402Z,2.55
2023-04-30T02:05:22.915Z,2.65
2023-04-30T02:10:27.701Z,3.13
2023-04-30T02:15:31.533Z,3.00
2023-04-30T02:20:34.037Z,2.67
2023-04-30T02:25:38.277Z,2.67
2023-04-30T02:30:42.088Z,2.97
2023-04-30T02:35:44.776Z,2.33
2023-04-30T02:40:47.258Z,2.33
2023-04-30T02:45:51.133Z,2.27
2023-04-30T02:50:53.648Z,2.58
2023-04-30T02:55:56.137Z,2.50
2023-04-30T03:01:00.378Z,2.67
2023-04-30T03:06:02.985Z,2.10
2023-04-30T03:11:05.654Z,2.50
2023-04-30T03:16:09.515Z,2.40
2023-04-30T03:21:12.024Z,2.60
2023-04-30T03:26:15.355Z,2.42
2023-04-30T03:31:19.380Z,2.17
2023-04-30T03:36:22.255Z,2.67
2023-04-30T03:41:24.746Z,2.60
2023-04-30T03:46:29.039Z,2.60
2023-04-30T03:51:31.706Z,2.53
2023-04-30T03:56:34.580Z,2.80
2023-04-30T04:01:38.493Z,2.58
2023-04-30T04:06:41.090Z,2.37
2023-04-30T04:11:43.683Z,2.33
2023-04-30T04:16:47.645Z,2.63
2023-04-30T04:21:50.705Z,2.72
2023-04-30T04:26:53.472Z,2.57
2023-04-30T04:31:57.356Z,2.45
2023-04-30T04:36:59.855Z,2.50
2023-04-30T04:42:02.489Z,2.60
2023-04-30T04:47:06.453Z,2.22
2023-04-30T04:52:08.920Z,2.78
2023-04-30T04:57:11.372Z,3.23
2023-04-30T05:02:15.188Z,2.50
2023-04-30T05:07:18.591Z,2.60
2023-04-30T05:12:21.083Z,2.67
2023-04-30T05:17:24.937Z,2.30
2023-04-30T05:22:27.416Z,2.60
2023-04-30T05:27:29.895Z,2.33
2023-04-30T05:32:33.760Z,2.37
2023-04-30T05:37:36.399Z,3.03
2023-04-30T05:42:40.755Z,2.63
2023-04-30T05:47:44.618Z,2.60
2023-04-30T05:52:47.231Z,2.33
2023-04-30T05:57:49.720Z,2.90
2023-04-30T06:02:53.964Z,3.00
2023-04-30T06:07:56.480Z,2.60
2023-04-30T06:12:59.010Z,2.42
2023-04-30T06:18:02.970Z,2.08
2023-04-30T06:23:05.499Z,2.37
2023-04-30T06:28:09.894Z,2.20
2023-04-30T06:33:13.751Z,2.15
2023-04-30T06:38:16.248Z,1.70
2023-04-30T06:43:18.798Z,2.67
2023-04-30T06:48:23.133Z,2.17
2023-04-30T06:53:25.696Z,2.10
2023-04-30T06:58:28.151Z,1.80
2023-04-30T07:03:33.606Z,2.30
2023-04-30T07:08:36.179Z,2.30
2023-04-30T07:13:38.653Z,2.50
2023-04-30T07:18:42.445Z,2.25
2023-04-30T07:23:45.515Z,1.95
2023-04-30T07:28:48.599Z,2.40
2023-04-30T07:33:52.400Z,2.20
2023-04-30T07:38:54.874Z,2.67
2023-04-30T07:43:57.578Z,2.70
2023-04-30T07:49:01.492Z,1.77
2023-04-30T07:54:04.401Z,1.70
2023-04-30T07:59:07.156Z,2.03
2023-04-30T08:04:11.320Z,2.20
2023-04-30T08:09:13.843Z,1.83
2023-04-30T08:14:16.576Z,1.35
2023-04-30T08:19:20.405Z,2.00
2023-04-30T08:24:22.917Z,2.27
2023-04-30T08:29:25.481Z,2.00
2023-04-30T08:34:29.284Z,2.10
2023-04-30T08:39:31.885Z,1.70
2023-04-30T08:44:36.138Z,2.10
2023-04-30T08:49:40.159Z,1.98
2023-04-30T08:54:45.174Z,1.90
2023-04-30T08:59:47.753Z,1.83
2023-04-30T09:04:51.598Z,2.30
2023-04-30T09:09:54.622Z,2.10
2023-04-30T09:15:03.329Z,1.97
2023-04-30T09:20:12.637Z,1.77
2023-04-30T09:25:15.259Z,2.10
2023-04-30T09:30:32.643Z,2.00
2023-04-30T09:35:38.808Z,1.90
2023-04-30T09:40:42.739Z,2.10
2023-04-30T09:45:47.607Z,2.17
2023-04-30T09:50:51.809Z,2.17
2023-04-30T09:55:57.367Z,2.17
2023-04-30T10:01:03.389Z,2.40
2023-04-30T10:06:08.749Z,2.10
2023-04-30T10:11:16.469Z,2.17
2023-04-30T10:16:29.040Z,2.30
2023-04-30T10:21:33.896Z,2.43
2023-04-30T10:26:36.884Z,2.38
2023-04-30T10:31:41.752Z,2.03
2023-04-30T10:36:48.636Z,2.00
2023-04-30T10:41:51.707Z,2.30
2023-04-30T10:46:59.961Z,2.13
2023-04-30T10:52:05.345Z,1.80
2023-04-30T10:57:13.209Z,2.00
2023-04-30T11:02:17.952Z,2.40
2023-04-30T11:07:28.508Z,1.98
2023-04-30T11:12:31.191Z,1.90
2023-04-30T11:17:34.477Z,3.10
2023-04-30T11:22:39.769Z,2.20
2023-04-30T11:27:44.886Z,2.57
2023-04-30T11:32:50.110Z,2.00
2023-04-30T11:37:56.039Z,2.03
2023-04-30T11:42:58.546Z,2.60
2023-04-30T11:48:01.023Z,2.13
2023-04-30T11:53:05.306Z,2.03
2023-04-30T11:58:10.600Z,2.40
2023-04-30T12:03:15.990Z,1.83
2023-04-30T12:08:20.470Z,2.08
2023-04-30T12:13:22.967Z,2.38
2023-04-30T12:18:25.762Z,2.30
2023-04-30T12:23:29.745Z,2.30
2023-04-30T12:28:32.245Z,2.17
2023-04-30T12:33:34.791Z,2.43
2023-04-30T12:38:38.602Z,2.00
2023-04-30T12:43:41.076Z,2.20
2023-04-30T12:48:45.655Z,2.47
2023-04-30T12:53:49.594Z,2.23
2023-04-30T12:58:52.069Z,2.33
2023-04-30T13:03:54.758Z,2.30
2023-04-30T13:08:59.240Z,3.07
2023-04-30T13:14:01.714Z,2.05
2023-04-30T13:19:05.147Z,2.05
2023-04-30T13:24:09.012Z,2.40
2023-04-30T13:29:12.204Z,1.77
2023-04-30T13:34:14.719Z,1.95
2023-04-30T13:39:19.634Z,1.70
2023-04-30T13:44:22.236Z,2.50
2023-04-30T13:49:24.825Z,3.15
2023-04-30T13:54:28.638Z,2.10
2023-04-30T13:59:33.240Z,2.30
2023-04-30T14:04:35.764Z,1.67
2023-04-30T14:09:39.583Z,2.30
2023-04-30T14:14:42.396Z,2.13
2023-04-30T14:19:45.190Z,2.00
2023-04-30T14:24:49.004Z,2.45
2023-04-30T14:29:51.515Z,3.20
2023-04-30T14:34:54.226Z,2.40
2023-04-30T14:39:58.728Z,2.22
2023-04-30T14:45:01.278Z,1.70
2023-04-30T14:50:04.264Z,3.00
2023-04-30T14:55:09.185Z,1.90
2023-04-30T15:00:13.027Z,4.50
2023-04-30T15:05:15.499Z,2.00
2023-04-30T15:10:19.434Z,2.50
2023-04-30T15:15:27.672Z,2.20
2023-04-30T15:20:30.464Z,2.38
2023-04-30T15:25:34.596Z,2.20
2023-04-30T15:30:37.141Z,2.63
2023-04-30T15:35:40.584Z,2.60
2023-04-30T15:40:44.387Z,3.40
2023-04-30T15:45:48.240Z,2.28
2023-04-30T15:50:51.028Z,2.42
2023-04-30T15:55:54.858Z,2.70
2023-04-30T16:00:57.337Z,2.73
2023-04-30T16:06:00.847Z,2.40
2023-04-30T16:11:05.777Z,2.45
2023-04-30T16:16:09.185Z,2.70
2023-04-30T16:21:12.707Z,2.40
2023-04-30T16:26:17.160Z,2.50
2023-04-30T16:31:23.093Z,2.43
2023-04-30T16:36:25.723Z,2.30
2023-04-30T16:41:29.539Z,2.42
2023-04-30T16:46:32.074Z,2.60
2023-04-30T16:51:34.659Z,2.50
2023-04-30T16:56:38.650Z,2.60
2023-04-30T17:01:41.405Z,2.70
2023-04-30T17:06:43.942Z,7.23
2023-04-30T17:11:47.787Z,3.53
2023-04-30T17:16:50.278Z,6.50
2023-04-30T17:21:52.755Z,2.80
2023-04-30T17:26:58.123Z,2.70
2023-04-30T17:32:00.596Z,2.67
2023-04-30T17:37:03.064Z,6.07
2023-04-30T17:42:08.033Z,8.13
2023-04-30T17:47:10.530Z,35.35
2023-04-30T17:52:13.363Z,14.35
2023-04-30T17:57:17.314Z,5.63
2023-04-30T18:02:19.846Z,10.55
2023-04-30T18:07:22.423Z,4.95
2023-04-30T18:12:26.800Z,13.30
2023-04-30T18:17:29.312Z,23.10
2023-04-30T18:22:31.976Z,21.58
2023-04-30T18:27:36.156Z,4.63
2023-04-30T18:32:38.688Z,20.80
2023-04-30T18:37:41.222Z,21.83
2023-04-30T18:42:45.028Z,9.88
2023-04-30T18:47:47.693Z,6.00
2023-04-30T18:52:50.176Z,7.43
2023-04-30T18:57:56.184Z,4.55
2023-04-30T19:02:58.801Z,6.83
2023-04-30T19:08:01.482Z,5.28
2023-04-30T19:13:05.315Z,5.07
2023-04-30T19:18:07.926Z,9.80
2023-04-30T19:23:10.596Z,11.00
2023-04-30T19:28:15.599Z,8.82
2023-04-30T19:33:18.177Z,18.38
2023-04-30T19:38:21.478Z,8.03
2023-04-30T19:43:26.160Z,5.45
2023-04-30T19:48:28.705Z,11.98
2023-04-30T19:53:31.345Z,14.53
2023-04-30T19:58:35.217Z,11.63
2023-04-30T20:03:38.123Z,11.43
2023-04-30T20:08:40.799Z,10.87
2023-04-30T20:13:44.653Z,11.00
2023-04-30T20:18:47.637Z,9.48
2023-04-30T20:23:50.140Z,7.93
2023-04-30T20:28:53.980Z,6.13
2023-04-30T20:33:56.457Z,6.18
2023-04-30T20:38:59.070Z,6.97
2023-04-30T20:44:02.949Z,6.57
2023-04-30T20:49:05.467Z,6.72
2023-04-30T20:54:08.581Z,6.60
2023-04-30T20:59:12.462Z,7.23
2023-04-30T21:04:14.948Z,8.00
2023-04-30T21:09:17.488Z,6.78
2023-04-30T21:14:21.662Z,7.00
2023-04-30T21:19:24.374Z,5.97
2023-04-30T21:24:26.872Z,4.82
2023-04-30T21:29:30.686Z,6.03
2023-04-30T21:34:33.647Z,6.67
2023-04-30T21:39:36.203Z,5.75
2023-04-30T21:44:40.099Z,6.28
2023-04-30T21:49:42.938Z,5.77
2023-04-30T21:54:45.487Z,5.53
2023-04-30T21:59:49.311Z,12.52
2023-04-30T22:04:53.304Z,14.43
2023-04-30T22:09:56.279Z,11.93
2023-04-30T22:15:00.904Z,11.18
2023-04-30T22:20:03.438Z,7.10
2023-04-30T22:25:06.825Z,8.00
2023-04-30T22:30:11.763Z,8.40
2023-04-30T22:35:16.150Z,7.68
2023-04-30T22:40:19.109Z,7.20
2023-04-30T22:45:23.053Z,7.40
2023-04-30T22:50:25.576Z,8.00
2023-04-30T22:55:28.298Z,6.82
2023-04-30T23:00:32.127Z,7.53
2023-04-30T23:05:34.627Z,7.55
2023-04-30T23:10:37.148Z,7.32
2023-04-30T23:15:42.468Z,8.00
2023-04-30T23:20:45.973Z,8.25
2023-04-30T23:25:48.456Z,8.20
2023-04-30T23:30:52.940Z,8.57
2023-04-30T23:35:55.455Z,8.20
2023-04-30T23:40:57.952Z,8.48
2023-04-30T23:46:01.848Z,8.27
2023-04-30T23:51:08.233Z,7.97
2023-04-30T23:56:10.880Z,7.60
